sensor_id;sensor_type;location;lat;lon;timestamp;temperature;humidity
44671;DHT22;48397;53.016;-2.260;2023-07-16T00:00:24;14.80;99.90
44671;DHT22;48397;53.016;-2.260;2023-07-16T00:02:55;14.70;99.90
44671;DHT22;48397;53.016;-2.260;2023-07-16T00:05:23;14.70;99.90
44671;DHT22;48397;53.016;-2.260;2023-07-16T00:07:50;14.70;99.90
44671;DHT22;48397;53.016;-2.260;2023-07-16T00:10:18;14.60;99.90
44671;DHT22;48397;53.016;-2.260;2023-07-16T00:12:46;14.60;99.90
44671;DHT22;48397;53.016;-2.260;2023-07-16T00:15:15;14.60;99.90
44671;DHT22;48397;53.016;-2.260;2023-07-16T00:17:42;14.60;99.90
44671;DHT22;48397;53.016;-2.260;2023-07-16T00:20:10;14.70;99.90
44671;DHT22;48397;53.016;-2.260;2023-07-16T00:22:38;14.60;99.90
44671;DHT22;48397;53.016;-2.260;2023-07-16T00:25:06;14.60;99.90
44671;DHT22;48397;53.016;-2.260;2023-07-16T00:27:34;14.70;99.90
44671;DHT22;48397;53.016;-2.260;2023-07-16T00:30:02;14.60;99.90
44671;DHT22;48397;53.016;-2.260;2023-07-16T00:32:31;14.70;99.90
44671;DHT22;48397;53.016;-2.260;2023-07-16T00:34:59;14.60;99.90
44671;DHT22;48397;53.016;-2.260;2023-07-16T00:37:26;14.70;99.90
44671;DHT22;48397;53.016;-2.260;2023-07-16T00:39:55;14.60;99.90
44671;DHT22;48397;53.016;-2.260;2023-07-16T00:42:23;14.70;99.90
44671;DHT22;48397;53.016;-2.260;2023-07-16T00:44:51;14.70;99.90
44671;DHT22;48397;53.016;-2.260;2023-07-16T00:47:19;14.70;99.90
44671;DHT22;48397;53.016;-2.260;2023-07-16T00:49:48;14.60;99.90
44671;DHT22;48397;53.016;-2.260;2023-07-16T00:52:18;14.60;99.90
44671;DHT22;48397;53.016;-2.260;2023-07-16T00:54:46;14.60;99.90
44671;DHT22;48397;53.016;-2.260;2023-07-16T00:57:15;14.60;99.90
44671;DHT22;48397;53.016;-2.260;2023-07-16T00:59:43;14.60;99.90
44671;DHT22;48397;53.016;-2.260;2023-07-16T01:02:11;14.60;99.90
44671;DHT22;48397;53.016;-2.260;2023-07-16T01:04:38;14.60;99.90
44671;DHT22;48397;53.016;-2.260;2023-07-16T01:07:08;14.60;99.90
44671;DHT22;48397;53.016;-2.260;2023-07-16T01:09:41;14.60;99.90
44671;DHT22;48397;53.016;-2.260;2023-07-16T01:12:10;14.60;99.90
44671;DHT22;48397;53.016;-2.260;2023-07-16T01:14:39;14.60;99.90
44671;DHT22;48397;53.016;-2.260;2023-07-16T01:17:08;14.60;99.90
44671;DHT22;48397;53.016;-2.260;2023-07-16T01:19:36;14.60;99.90
44671;DHT22;48397;53.016;-2.260;2023-07-16T01:30:21;14.50;99.90
44671;DHT22;48397;53.016;-2.260;2023-07-16T01:32:52;14.50;99.90
44671;DHT22;48397;53.016;-2.260;2023-07-16T01:35:21;14.50;99.90
44671;DHT22;48397;53.016;-2.260;2023-07-16T01:37:49;14.50;99.90
44671;DHT22;48397;53.016;-2.260;2023-07-16T01:40:16;14.50;99.90
44671;DHT22;48397;53.016;-2.260;2023-07-16T01:42:44;14.50;99.90
44671;DHT22;48397;53.016;-2.260;2023-07-16T01:45:12;14.40;99.90
44671;DHT22;48397;53.016;-2.260;2023-07-16T01:50:38;14.30;99.90
44671;DHT22;48397;53.016;-2.260;2023-07-16T01:53:06;14.20;99.90
44671;DHT22;48397;53.016;-2.260;2023-07-16T01:55:34;14.20;99.90
44671;DHT22;48397;53.016;-2.260;2023-07-16T01:58:01;14.10;99.90
44671;DHT22;48397;53.016;-2.260;2023-07-16T02:00:34;14.10;99.90
44671;DHT22;48397;53.016;-2.260;2023-07-16T02:03:02;14.20;99.90
44671;DHT22;48397;53.016;-2.260;2023-07-16T02:05:32;14.20;99.90
44671;DHT22;48397;53.016;-2.260;2023-07-16T02:08:00;14.20;99.90
44671;DHT22;48397;53.016;-2.260;2023-07-16T02:10:31;14.30;99.90
44671;DHT22;48397;53.016;-2.260;2023-07-16T02:12:59;14.30;99.90
44671;DHT22;48397;53.016;-2.260;2023-07-16T02:15:27;14.30;99.90
44671;DHT22;48397;53.016;-2.260;2023-07-16T02:17:55;14.30;99.90
44671;DHT22;48397;53.016;-2.260;2023-07-16T02:20:22;14.40;99.90
44671;DHT22;48397;53.016;-2.260;2023-07-16T02:22:51;14.40;99.90
44671;DHT22;48397;53.016;-2.260;2023-07-16T02:25:18;14.30;99.90
44671;DHT22;48397;53.016;-2.260;2023-07-16T02:27:47;14.40;99.90
44671;DHT22;48397;53.016;-2.260;2023-07-16T02:30:16;14.40;99.90
44671;DHT22;48397;53.016;-2.260;2023-07-16T02:32:44;14.40;99.90
44671;DHT22;48397;53.016;-2.260;2023-07-16T02:35:11;14.40;99.90
44671;DHT22;48397;53.016;-2.260;2023-07-16T02:37:39;14.40;99.90
44671;DHT22;48397;53.016;-2.260;2023-07-16T02:40:07;14.40;99.90
44671;DHT22;48397;53.016;-2.260;2023-07-16T02:42:35;14.50;99.90
44671;DHT22;48397;53.016;-2.260;2023-07-16T02:45:03;14.50;99.90
44671;DHT22;48397;53.016;-2.260;2023-07-16T02:47:32;14.50;99.90
44671;DHT22;48397;53.016;-2.260;2023-07-16T02:49:59;14.50;99.90
44671;DHT22;48397;53.016;-2.260;2023-07-16T02:52:29;14.50;99.90
44671;DHT22;48397;53.016;-2.260;2023-07-16T02:54:57;14.50;99.90
44671;DHT22;48397;53.016;-2.260;2023-07-16T02:57:25;14.50;99.90
44671;DHT22;48397;53.016;-2.260;2023-07-16T02:59:53;14.60;99.90
44671;DHT22;48397;53.016;-2.260;2023-07-16T03:02:20;14.60;99.90
44671;DHT22;48397;53.016;-2.260;2023-07-16T03:04:49;14.60;99.90
44671;DHT22;48397;53.016;-2.260;2023-07-16T03:07:17;14.60;99.90
44671;DHT22;48397;53.016;-2.260;2023-07-16T03:09:45;14.60;99.90
44671;DHT22;48397;53.016;-2.260;2023-07-16T03:12:12;14.50;99.90
44671;DHT22;48397;53.016;-2.260;2023-07-16T03:14:40;14.50;99.90
44671;DHT22;48397;53.016;-2.260;2023-07-16T03:17:08;14.50;99.90
44671;DHT22;48397;53.016;-2.260;2023-07-16T03:19:36;14.40;99.90
44671;DHT22;48397;53.016;-2.260;2023-07-16T03:22:04;14.40;99.90
44671;DHT22;48397;53.016;-2.260;2023-07-16T03:24:32;14.40;99.90
44671;DHT22;48397;53.016;-2.260;2023-07-16T03:27:00;14.40;99.90
44671;DHT22;48397;53.016;-2.260;2023-07-16T03:29:45;14.30;99.90
44671;DHT22;48397;53.016;-2.260;2023-07-16T03:32:15;14.30;99.90
44671;DHT22;48397;53.016;-2.260;2023-07-16T03:34:43;14.40;99.90
44671;DHT22;48397;53.016;-2.260;2023-07-16T03:37:11;14.40;99.90
44671;DHT22;48397;53.016;-2.260;2023-07-16T03:39:39;14.40;99.90
44671;DHT22;48397;53.016;-2.260;2023-07-16T03:42:07;14.40;99.90
44671;DHT22;48397;53.016;-2.260;2023-07-16T03:44:35;14.40;99.90
44671;DHT22;48397;53.016;-2.260;2023-07-16T03:47:04;14.40;99.90
44671;DHT22;48397;53.016;-2.260;2023-07-16T03:49:32;14.40;99.90
44671;DHT22;48397;53.016;-2.260;2023-07-16T03:51:59;14.40;99.90
44671;DHT22;48397;53.016;-2.260;2023-07-16T03:54:28;14.40;99.90
44671;DHT22;48397;53.016;-2.260;2023-07-16T03:56:55;14.40;99.90
44671;DHT22;48397;53.016;-2.260;2023-07-16T03:59:24;14.40;99.90
44671;DHT22;48397;53.016;-2.260;2023-07-16T04:01:52;14.40;99.90
44671;DHT22;48397;53.016;-2.260;2023-07-16T04:04:21;14.40;99.90
44671;DHT22;48397;53.016;-2.260;2023-07-16T04:06:48;14.30;99.90
44671;DHT22;48397;53.016;-2.260;2023-07-16T04:09:17;14.40;99.90
44671;DHT22;48397;53.016;-2.260;2023-07-16T04:11:45;14.30;99.90
44671;DHT22;48397;53.016;-2.260;2023-07-16T04:14:13;14.40;99.90
44671;DHT22;48397;53.016;-2.260;2023-07-16T04:16:40;14.40;99.90
44671;DHT22;48397;53.016;-2.260;2023-07-16T04:19:08;14.40;99.90
44671;DHT22;48397;53.016;-2.260;2023-07-16T04:21:39;13.10;99.90
44671;DHT22;48397;53.016;-2.260;2023-07-16T04:24:07;14.40;99.90
44671;DHT22;48397;53.016;-2.260;2023-07-16T04:26:35;14.40;99.90
44671;DHT22;48397;53.016;-2.260;2023-07-16T04:29:03;14.40;99.90
44671;DHT22;48397;53.016;-2.260;2023-07-16T04:31:31;14.40;99.90
44671;DHT22;48397;53.016;-2.260;2023-07-16T04:36:27;14.40;99.90
44671;DHT22;48397;53.016;-2.260;2023-07-16T04:38:55;14.30;99.90
44671;DHT22;48397;53.016;-2.260;2023-07-16T04:41:22;14.30;99.90
44671;DHT22;48397;53.016;-2.260;2023-07-16T04:43:50;14.30;99.90
44671;DHT22;48397;53.016;-2.260;2023-07-16T04:46:18;14.30;99.90
44671;DHT22;48397;53.016;-2.260;2023-07-16T04:48:47;14.30;99.90
44671;DHT22;48397;53.016;-2.260;2023-07-16T04:51:15;11.30;99.90
44671;DHT22;48397;53.016;-2.260;2023-07-16T04:53:43;14.30;99.90
44671;DHT22;48397;53.016;-2.260;2023-07-16T04:56:15;14.30;99.90
44671;DHT22;48397;53.016;-2.260;2023-07-16T04:58:43;14.30;99.90
44671;DHT22;48397;53.016;-2.260;2023-07-16T05:01:11;14.30;99.90
44671;DHT22;48397;53.016;-2.260;2023-07-16T05:03:39;14.30;99.90
44671;DHT22;48397;53.016;-2.260;2023-07-16T05:06:07;14.30;99.90
44671;DHT22;48397;53.016;-2.260;2023-07-16T05:08:35;14.30;99.90
44671;DHT22;48397;53.016;-2.260;2023-07-16T05:11:02;14.30;99.90
44671;DHT22;48397;53.016;-2.260;2023-07-16T05:13:30;14.30;99.90
44671;DHT22;48397;53.016;-2.260;2023-07-16T05:15:58;14.30;99.90
44671;DHT22;48397;53.016;-2.260;2023-07-16T05:18:26;14.20;99.90
44671;DHT22;48397;53.016;-2.260;2023-07-16T05:20:54;14.30;99.90
44671;DHT22;48397;53.016;-2.260;2023-07-16T05:23:22;14.20;99.90
44671;DHT22;48397;53.016;-2.260;2023-07-16T05:25:50;14.20;99.90
44671;DHT22;48397;53.016;-2.260;2023-07-16T05:28:18;14.20;99.90
44671;DHT22;48397;53.016;-2.260;2023-07-16T05:30:46;14.20;99.90
44671;DHT22;48397;53.016;-2.260;2023-07-16T05:33:14;14.20;99.90
44671;DHT22;48397;53.016;-2.260;2023-07-16T05:35:42;14.30;99.90
44671;DHT22;48397;53.016;-2.260;2023-07-16T05:38:09;14.30;99.90
44671;DHT22;48397;53.016;-2.260;2023-07-16T05:40:37;14.30;99.90
44671;DHT22;48397;53.016;-2.260;2023-07-16T05:43:05;14.30;99.90
44671;DHT22;48397;53.016;-2.260;2023-07-16T05:45:33;14.30;99.90
44671;DHT22;48397;53.016;-2.260;2023-07-16T05:48:01;14.30;99.90
44671;DHT22;48397;53.016;-2.260;2023-07-16T05:50:29;14.30;99.90
44671;DHT22;48397;53.016;-2.260;2023-07-16T05:52:56;14.40;99.90
44671;DHT22;48397;53.016;-2.260;2023-07-16T05:55:24;14.40;99.90
44671;DHT22;48397;53.016;-2.260;2023-07-16T05:57:53;14.40;99.90
44671;DHT22;48397;53.016;-2.260;2023-07-16T06:00:20;13.30;99.90
44671;DHT22;48397;53.016;-2.260;2023-07-16T06:02:48;14.40;99.90
44671;DHT22;48397;53.016;-2.260;2023-07-16T06:05:16;14.40;99.90
44671;DHT22;48397;53.016;-2.260;2023-07-16T06:07:44;14.40;99.90
44671;DHT22;48397;53.016;-2.260;2023-07-16T06:10:11;14.40;99.90
44671;DHT22;48397;53.016;-2.260;2023-07-16T06:12:39;14.40;99.90
44671;DHT22;48397;53.016;-2.260;2023-07-16T06:15:07;14.50;99.90
44671;DHT22;48397;53.016;-2.260;2023-07-16T06:17:35;14.50;99.90
44671;DHT22;48397;53.016;-2.260;2023-07-16T06:20:03;14.50;99.90
44671;DHT22;48397;53.016;-2.260;2023-07-16T06:22:31;14.40;99.90
44671;DHT22;48397;53.016;-2.260;2023-07-16T06:24:59;14.50;99.90
44671;DHT22;48397;53.016;-2.260;2023-07-16T06:27:27;14.60;99.90
44671;DHT22;48397;53.016;-2.260;2023-07-16T06:29:55;14.60;99.90
44671;DHT22;48397;53.016;-2.260;2023-07-16T06:32:23;14.60;99.90
44671;DHT22;48397;53.016;-2.260;2023-07-16T06:34:50;14.70;99.90
44671;DHT22;48397;53.016;-2.260;2023-07-16T06:39:46;14.80;99.90
44671;DHT22;48397;53.016;-2.260;2023-07-16T06:42:14;14.90;99.90
44671;DHT22;48397;53.016;-2.260;2023-07-16T06:44:42;15.00;99.90
44671;DHT22;48397;53.016;-2.260;2023-07-16T06:47:10;15.00;99.90
44671;DHT22;48397;53.016;-2.260;2023-07-16T06:49:38;15.00;99.90
44671;DHT22;48397;53.016;-2.260;2023-07-16T06:52:06;15.10;99.90
44671;DHT22;48397;53.016;-2.260;2023-07-16T06:54:34;15.20;99.90
44671;DHT22;48397;53.016;-2.260;2023-07-16T06:57:02;15.20;99.90
44671;DHT22;48397;53.016;-2.260;2023-07-16T06:59:30;15.20;99.90
44671;DHT22;48397;53.016;-2.260;2023-07-16T07:01:58;15.30;99.90
44671;DHT22;48397;53.016;-2.260;2023-07-16T07:04:26;15.30;99.90
44671;DHT22;48397;53.016;-2.260;2023-07-16T07:06:53;15.40;99.90
44671;DHT22;48397;53.016;-2.260;2023-07-16T07:09:21;15.40;99.90
44671;DHT22;48397;53.016;-2.260;2023-07-16T07:11:49;15.50;99.90
44671;DHT22;48397;53.016;-2.260;2023-07-16T07:14:17;15.60;99.90
44671;DHT22;48397;53.016;-2.260;2023-07-16T07:19:12;15.60;99.90
44671;DHT22;48397;53.016;-2.260;2023-07-16T07:21:40;15.70;99.90
44671;DHT22;48397;53.016;-2.260;2023-07-16T07:24:08;15.80;99.90
44671;DHT22;48397;53.016;-2.260;2023-07-16T07:26:35;15.90;99.90
44671;DHT22;48397;53.016;-2.260;2023-07-16T07:29:03;15.90;99.90
44671;DHT22;48397;53.016;-2.260;2023-07-16T07:36:28;15.80;99.90
44671;DHT22;48397;53.016;-2.260;2023-07-16T07:38:56;15.80;99.90
44671;DHT22;48397;53.016;-2.260;2023-07-16T07:41:24;15.80;99.90
44671;DHT22;48397;53.016;-2.260;2023-07-16T07:43:51;15.90;99.90
44671;DHT22;48397;53.016;-2.260;2023-07-16T07:46:19;15.80;99.90
44671;DHT22;48397;53.016;-2.260;2023-07-16T07:48:47;15.90;99.90
44671;DHT22;48397;53.016;-2.260;2023-07-16T07:51:15;16.00;99.90
44671;DHT22;48397;53.016;-2.260;2023-07-16T07:53:42;16.00;99.90
44671;DHT22;48397;53.016;-2.260;2023-07-16T07:56:10;16.00;99.90
44671;DHT22;48397;53.016;-2.260;2023-07-16T07:58:38;16.00;99.90
44671;DHT22;48397;53.016;-2.260;2023-07-16T08:01:06;16.20;99.90
44671;DHT22;48397;53.016;-2.260;2023-07-16T08:03:35;16.30;99.90
44671;DHT22;48397;53.016;-2.260;2023-07-16T08:06:03;16.40;99.90
44671;DHT22;48397;53.016;-2.260;2023-07-16T08:08:30;16.50;99.90
44671;DHT22;48397;53.016;-2.260;2023-07-16T08:10:58;16.60;99.90
44671;DHT22;48397;53.016;-2.260;2023-07-16T08:13:26;16.60;99.90
44671;DHT22;48397;53.016;-2.260;2023-07-16T08:15:54;16.70;99.90
44671;DHT22;48397;53.016;-2.260;2023-07-16T08:18:21;14.60;99.90
44671;DHT22;48397;53.016;-2.260;2023-07-16T08:20:49;16.70;99.90
44671;DHT22;48397;53.016;-2.260;2023-07-16T08:23:17;16.70;99.90
44671;DHT22;48397;53.016;-2.260;2023-07-16T08:25:47;16.90;99.90
44671;DHT22;48397;53.016;-2.260;2023-07-16T08:28:14;16.90;99.90
44671;DHT22;48397;53.016;-2.260;2023-07-16T08:30:42;16.90;99.90
44671;DHT22;48397;53.016;-2.260;2023-07-16T08:33:13;16.90;99.90
44671;DHT22;48397;53.016;-2.260;2023-07-16T08:35:42;16.80;99.90
44671;DHT22;48397;53.016;-2.260;2023-07-16T08:38:09;16.80;99.90
44671;DHT22;48397;53.016;-2.260;2023-07-16T08:40:38;16.80;99.90
44671;DHT22;48397;53.016;-2.260;2023-07-16T08:43:07;16.90;99.90
44671;DHT22;48397;53.016;-2.260;2023-07-16T08:45:39;16.80;99.90
44671;DHT22;48397;53.016;-2.260;2023-07-16T08:48:08;17.10;99.90
44671;DHT22;48397;53.016;-2.260;2023-07-16T08:50:37;17.00;99.90
44671;DHT22;48397;53.016;-2.260;2023-07-16T08:53:06;17.00;99.90
44671;DHT22;48397;53.016;-2.260;2023-07-16T08:55:34;16.90;99.90
44671;DHT22;48397;53.016;-2.260;2023-07-16T08:58:06;16.90;99.90
44671;DHT22;48397;53.016;-2.260;2023-07-16T09:00:35;16.90;99.90
44671;DHT22;48397;53.016;-2.260;2023-07-16T09:03:03;17.00;99.90
44671;DHT22;48397;53.016;-2.260;2023-07-16T09:05:35;17.00;99.90
44671;DHT22;48397;53.016;-2.260;2023-07-16T09:08:07;17.20;99.90
44671;DHT22;48397;53.016;-2.260;2023-07-16T09:10:35;17.20;99.90
44671;DHT22;48397;53.016;-2.260;2023-07-16T09:13:03;17.20;99.90
44671;DHT22;48397;53.016;-2.260;2023-07-16T09:15:31;17.20;99.90
44671;DHT22;48397;53.016;-2.260;2023-07-16T09:18:01;17.20;99.90
44671;DHT22;48397;53.016;-2.260;2023-07-16T09:20:30;17.20;99.90
44671;DHT22;48397;53.016;-2.260;2023-07-16T09:22:58;17.20;99.90
44671;DHT22;48397;53.016;-2.260;2023-07-16T09:25:30;17.30;99.90
44671;DHT22;48397;53.016;-2.260;2023-07-16T09:28:02;17.50;99.90
44671;DHT22;48397;53.016;-2.260;2023-07-16T09:30:33;17.50;99.90
44671;DHT22;48397;53.016;-2.260;2023-07-16T09:33:15;17.80;99.90
44671;DHT22;48397;53.016;-2.260;2023-07-16T09:35:44;17.80;99.90
44671;DHT22;48397;53.016;-2.260;2023-07-16T09:38:12;17.90;99.90
44671;DHT22;48397;53.016;-2.260;2023-07-16T09:40:40;18.10;99.90
44671;DHT22;48397;53.016;-2.260;2023-07-16T09:43:12;18.50;99.90
44671;DHT22;48397;53.016;-2.260;2023-07-16T09:45:41;18.50;99.90
44671;DHT22;48397;53.016;-2.260;2023-07-16T09:48:10;18.50;99.90
44671;DHT22;48397;53.016;-2.260;2023-07-16T09:50:38;18.50;99.90
44671;DHT22;48397;53.016;-2.260;2023-07-16T09:53:08;18.30;99.90
44671;DHT22;48397;53.016;-2.260;2023-07-16T09:55:36;18.30;99.90
44671;DHT22;48397;53.016;-2.260;2023-07-16T09:58:08;18.20;99.90
44671;DHT22;48397;53.016;-2.260;2023-07-16T10:00:37;18.20;99.90
44671;DHT22;48397;53.016;-2.260;2023-07-16T10:03:09;18.70;99.90
44671;DHT22;48397;53.016;-2.260;2023-07-16T10:05:37;18.90;99.90
44671;DHT22;48397;53.016;-2.260;2023-07-16T10:08:14;18.80;99.90
44671;DHT22;48397;53.016;-2.260;2023-07-16T10:10:43;19.00;99.90
44671;DHT22;48397;53.016;-2.260;2023-07-16T10:13:12;19.40;99.90
44671;DHT22;48397;53.016;-2.260;2023-07-16T10:16:01;19.50;99.90
44671;DHT22;48397;53.016;-2.260;2023-07-16T10:18:31;19.60;99.90
44671;DHT22;48397;53.016;-2.260;2023-07-16T10:21:07;19.60;99.90
44671;DHT22;48397;53.016;-2.260;2023-07-16T10:23:43;19.60;99.90
44671;DHT22;48397;53.016;-2.260;2023-07-16T10:26:14;19.60;99.90
44671;DHT22;48397;53.016;-2.260;2023-07-16T10:28:46;19.60;99.90
44671;DHT22;48397;53.016;-2.260;2023-07-16T10:31:22;19.70;99.90
44671;DHT22;48397;53.016;-2.260;2023-07-16T10:34:03;20.00;99.90
44671;DHT22;48397;53.016;-2.260;2023-07-16T10:36:41;19.90;99.90
44671;DHT22;48397;53.016;-2.260;2023-07-16T10:39:10;20.00;99.90
44671;DHT22;48397;53.016;-2.260;2023-07-16T10:41:37;19.90;99.90
44671;DHT22;48397;53.016;-2.260;2023-07-16T10:44:07;20.00;99.90
44671;DHT22;48397;53.016;-2.260;2023-07-16T10:46:36;20.30;99.90
44671;DHT22;48397;53.016;-2.260;2023-07-16T10:49:04;20.30;99.90
44671;DHT22;48397;53.016;-2.260;2023-07-16T10:51:32;20.30;99.90
44671;DHT22;48397;53.016;-2.260;2023-07-16T10:56:27;19.70;99.90
44671;DHT22;48397;53.016;-2.260;2023-07-16T10:58:55;19.40;99.90
44671;DHT22;48397;53.016;-2.260;2023-07-16T11:01:23;19.30;99.90
44671;DHT22;48397;53.016;-2.260;2023-07-16T11:03:50;19.50;99.90
44671;DHT22;48397;53.016;-2.260;2023-07-16T11:06:18;19.70;99.90
44671;DHT22;48397;53.016;-2.260;2023-07-16T11:08:47;19.80;99.90
44671;DHT22;48397;53.016;-2.260;2023-07-16T11:11:16;20.10;99.90
44671;DHT22;48397;53.016;-2.260;2023-07-16T11:13:45;20.10;99.90
44671;DHT22;48397;53.016;-2.260;2023-07-16T11:16:17;20.60;99.90
44671;DHT22;48397;53.016;-2.260;2023-07-16T11:18:47;20.90;99.90
44671;DHT22;48397;53.016;-2.260;2023-07-16T11:21:18;20.90;99.90
44671;DHT22;48397;53.016;-2.260;2023-07-16T11:23:47;21.00;99.90
44671;DHT22;48397;53.016;-2.260;2023-07-16T11:26:15;21.20;99.90
44671;DHT22;48397;53.016;-2.260;2023-07-16T11:28:43;21.20;99.90
44671;DHT22;48397;53.016;-2.260;2023-07-16T11:31:16;21.30;99.90
44671;DHT22;48397;53.016;-2.260;2023-07-16T11:33:45;21.10;99.90
44671;DHT22;48397;53.016;-2.260;2023-07-16T11:36:13;20.60;99.90
44671;DHT22;48397;53.016;-2.260;2023-07-16T11:38:42;20.60;99.90
44671;DHT22;48397;53.016;-2.260;2023-07-16T11:41:09;20.30;99.90
44671;DHT22;48397;53.016;-2.260;2023-07-16T11:43:40;20.20;99.90
44671;DHT22;48397;53.016;-2.260;2023-07-16T11:46:15;20.10;99.90
44671;DHT22;48397;53.016;-2.260;2023-07-16T11:51:46;20.20;99.90
44671;DHT22;48397;53.016;-2.260;2023-07-16T11:54:14;20.10;99.90
44671;DHT22;48397;53.016;-2.260;2023-07-16T11:56:42;20.00;99.90
44671;DHT22;48397;53.016;-2.260;2023-07-16T11:59:10;20.00;99.90
44671;DHT22;48397;53.016;-2.260;2023-07-16T12:01:40;19.80;99.90
44671;DHT22;48397;53.016;-2.260;2023-07-16T12:04:08;19.80;99.90
44671;DHT22;48397;53.016;-2.260;2023-07-16T12:06:36;19.80;99.90
44671;DHT22;48397;53.016;-2.260;2023-07-16T12:09:03;19.60;99.90
44671;DHT22;48397;53.016;-2.260;2023-07-16T12:11:31;19.60;99.90
44671;DHT22;48397;53.016;-2.260;2023-07-16T12:13:59;19.70;99.90
44671;DHT22;48397;53.016;-2.260;2023-07-16T12:16:27;19.70;99.90
44671;DHT22;48397;53.016;-2.260;2023-07-16T12:18:54;20.00;99.90
44671;DHT22;48397;53.016;-2.260;2023-07-16T12:21:22;20.60;99.90
44671;DHT22;48397;53.016;-2.260;2023-07-16T12:23:51;20.60;99.90
44671;DHT22;48397;53.016;-2.260;2023-07-16T12:26:19;21.10;99.90
44671;DHT22;48397;53.016;-2.260;2023-07-16T12:28:47;21.50;99.90
44671;DHT22;48397;53.016;-2.260;2023-07-16T12:31:15;21.40;99.90
44671;DHT22;48397;53.016;-2.260;2023-07-16T12:33:44;21.40;99.90
44671;DHT22;48397;53.016;-2.260;2023-07-16T12:36:13;21.00;99.90
44671;DHT22;48397;53.016;-2.260;2023-07-16T12:38:42;21.00;99.90
44671;DHT22;48397;53.016;-2.260;2023-07-16T12:41:09;20.80;99.90
44671;DHT22;48397;53.016;-2.260;2023-07-16T12:43:37;20.70;99.90
44671;DHT22;48397;53.016;-2.260;2023-07-16T12:46:07;20.50;99.90
44671;DHT22;48397;53.016;-2.260;2023-07-16T12:48:35;20.70;99.90
44671;DHT22;48397;53.016;-2.260;2023-07-16T12:51:02;21.20;99.90
44671;DHT22;48397;53.016;-2.260;2023-07-16T12:53:30;21.20;99.90
44671;DHT22;48397;53.016;-2.260;2023-07-16T12:58:26;21.30;99.90
44671;DHT22;48397;53.016;-2.260;2023-07-16T13:00:55;21.20;99.90
44671;DHT22;48397;53.016;-2.260;2023-07-16T13:03:22;20.60;99.90
44671;DHT22;48397;53.016;-2.260;2023-07-16T13:05:50;21.50;99.90
44671;DHT22;48397;53.016;-2.260;2023-07-16T13:08:18;19.50;99.90
44671;DHT22;48397;53.016;-2.260;2023-07-16T13:10:46;19.40;99.90
44671;DHT22;48397;53.016;-2.260;2023-07-16T13:13:13;17.90;99.90
44671;DHT22;48397;53.016;-2.260;2023-07-16T13:15:41;12.80;99.90
44671;DHT22;48397;53.016;-2.260;2023-07-16T13:18:10;17.30;99.90
44671;DHT22;48397;53.016;-2.260;2023-07-16T13:20:38;16.80;99.90
44671;DHT22;48397;53.016;-2.260;2023-07-16T13:23:08;16.80;99.90
44671;DHT22;48397;53.016;-2.260;2023-07-16T13:25:36;16.70;99.90
44671;DHT22;48397;53.016;-2.260;2023-07-16T13:28:06;16.80;99.90
44671;DHT22;48397;53.016;-2.260;2023-07-16T13:30:35;16.80;99.90
44671;DHT22;48397;53.016;-2.260;2023-07-16T13:33:03;17.40;99.90
44671;DHT22;48397;53.016;-2.260;2023-07-16T13:35:31;17.40;99.90
44671;DHT22;48397;53.016;-2.260;2023-07-16T13:37:59;18.30;99.90
44671;DHT22;48397;53.016;-2.260;2023-07-16T13:40:27;18.30;99.90
44671;DHT22;48397;53.016;-2.260;2023-07-16T13:42:54;18.50;99.90
44671;DHT22;48397;53.016;-2.260;2023-07-16T13:47:50;18.20;99.90
44671;DHT22;48397;53.016;-2.260;2023-07-16T13:50:23;18.00;99.90
44671;DHT22;48397;53.016;-2.260;2023-07-16T13:52:51;17.90;99.90
44671;DHT22;48397;53.016;-2.260;2023-07-16T13:55:20;17.80;99.90
44671;DHT22;48397;53.016;-2.260;2023-07-16T13:57:48;18.00;99.90
44671;DHT22;48397;53.016;-2.260;2023-07-16T14:00:17;18.00;99.90
44671;DHT22;48397;53.016;-2.260;2023-07-16T14:02:45;18.10;99.90
44671;DHT22;48397;53.016;-2.260;2023-07-16T14:05:13;18.40;99.90
44671;DHT22;48397;53.016;-2.260;2023-07-16T14:07:41;18.50;99.90
44671;DHT22;48397;53.016;-2.260;2023-07-16T14:10:09;18.70;99.90
44671;DHT22;48397;53.016;-2.260;2023-07-16T14:12:36;18.90;99.90
44671;DHT22;48397;53.016;-2.260;2023-07-16T14:15:05;18.90;99.90
44671;DHT22;48397;53.016;-2.260;2023-07-16T14:17:33;19.00;99.90
44671;DHT22;48397;53.016;-2.260;2023-07-16T14:20:01;19.30;99.90
44671;DHT22;48397;53.016;-2.260;2023-07-16T14:22:29;19.50;99.90
44671;DHT22;48397;53.016;-2.260;2023-07-16T14:24:58;19.90;99.90
44671;DHT22;48397;53.016;-2.260;2023-07-16T14:27:26;19.90;99.90
44671;DHT22;48397;53.016;-2.260;2023-07-16T14:29:53;20.20;99.90
44671;DHT22;48397;53.016;-2.260;2023-07-16T14:32:34;20.70;99.90
44671;DHT22;48397;53.016;-2.260;2023-07-16T14:35:02;21.40;99.90
44671;DHT22;48397;53.016;-2.260;2023-07-16T14:37:31;22.10;99.90
44671;DHT22;48397;53.016;-2.260;2023-07-16T14:39:58;22.70;99.90
44671;DHT22;48397;53.016;-2.260;2023-07-16T14:42:27;22.80;99.90
44671;DHT22;48397;53.016;-2.260;2023-07-16T14:44:55;22.80;99.90
44671;DHT22;48397;53.016;-2.260;2023-07-16T14:47:23;22.80;99.90
44671;DHT22;48397;53.016;-2.260;2023-07-16T14:49:51;22.70;99.90
44671;DHT22;48397;53.016;-2.260;2023-07-16T14:52:19;22.80;99.90
44671;DHT22;48397;53.016;-2.260;2023-07-16T14:54:46;22.70;99.90
44671;DHT22;48397;53.016;-2.260;2023-07-16T14:57:14;22.70;99.90
44671;DHT22;48397;53.016;-2.260;2023-07-16T14:59:42;22.80;99.90
44671;DHT22;48397;53.016;-2.260;2023-07-16T15:02:10;22.80;99.90
44671;DHT22;48397;53.016;-2.260;2023-07-16T15:04:38;22.90;99.90
44671;DHT22;48397;53.016;-2.260;2023-07-16T15:07:06;23.10;99.90
44671;DHT22;48397;53.016;-2.260;2023-07-16T15:09:36;23.40;99.90
44671;DHT22;48397;53.016;-2.260;2023-07-16T15:12:06;23.60;99.90
44671;DHT22;48397;53.016;-2.260;2023-07-16T15:14:35;23.60;99.90
44671;DHT22;48397;53.016;-2.260;2023-07-16T15:17:04;23.60;99.90
44671;DHT22;48397;53.016;-2.260;2023-07-16T15:19:33;23.40;99.90
44671;DHT22;48397;53.016;-2.260;2023-07-16T15:22:03;23.20;99.90
44671;DHT22;48397;53.016;-2.260;2023-07-16T15:24:37;23.10;99.90
44671;DHT22;48397;53.016;-2.260;2023-07-16T15:27:06;23.00;99.90
44671;DHT22;48397;53.016;-2.260;2023-07-16T15:29:33;22.80;99.90
44671;DHT22;48397;53.016;-2.260;2023-07-16T15:32:01;22.80;99.90
44671;DHT22;48397;53.016;-2.260;2023-07-16T15:34:29;22.80;99.90
44671;DHT22;48397;53.016;-2.260;2023-07-16T15:36:57;22.50;99.90
44671;DHT22;48397;53.016;-2.260;2023-07-16T15:39:25;22.40;99.90
44671;DHT22;48397;53.016;-2.260;2023-07-16T15:41:53;22.40;99.90
44671;DHT22;48397;53.016;-2.260;2023-07-16T15:44:20;22.30;99.90
44671;DHT22;48397;53.016;-2.260;2023-07-16T15:46:48;22.20;99.90
44671;DHT22;48397;53.016;-2.260;2023-07-16T15:49:16;22.00;99.90
44671;DHT22;48397;53.016;-2.260;2023-07-16T15:51:43;21.80;99.90
44671;DHT22;48397;53.016;-2.260;2023-07-16T15:56:39;21.20;99.90
44671;DHT22;48397;53.016;-2.260;2023-07-16T15:59:07;20.70;99.90